N670W KSYR-
Flight info
| Callsign | N670W |
|---|---|
| Flight time | N/A |
| Altitude | VFR/025 |
| Route | |
| Aircraft | C172/L-VGD/C |
Departure
| Time | 2026-04-29 18:40 |
|---|---|
| Airport | Syracuse Hancock International Airport (KSYR) |
Arrival
| Time | N/A |
|---|---|
| Airport | - |
| Time | Latitude | Longitude | Altitude | Speed | Heading |
|---|---|---|---|---|---|
| 2026-04-29 18:30 | 43.11045 | -76.11201 | 418 ft | 0 kts | 266° |
| 2026-04-29 18:32 | 43.11039 | -76.11241 | 417 ft | 0 kts | 254° |
| 2026-04-29 18:33 | 43.11038 | -76.11251 | 417 ft | 8 kts | 256° |
| 2026-04-29 18:33 | 43.10985 | -76.11359 | 411 ft | 25 kts | 267° |
| 2026-04-29 18:33 | 43.10975 | -76.11620 | 415 ft | 26 kts | 267° |
| 2026-04-29 18:33 | 43.10969 | -76.11852 | 412 ft | 23 kts | 268° |
| 2026-04-29 18:34 | 43.10962 | -76.12041 | 416 ft | 17 kts | 268° |
| 2026-04-29 18:34 | 43.10959 | -76.12137 | 418 ft | 14 kts | 268° |
| 2026-04-29 18:34 | 43.10956 | -76.12291 | 419 ft | 11 kts | 262° |
| 2026-04-29 18:34 | 43.10948 | -76.12470 | 424 ft | 26 kts | 269° |
| 2026-04-29 18:35 | 43.10937 | -76.12608 | 425 ft | 6 kts | 234° |
| 2026-04-29 18:35 | 43.10934 | -76.12612 | 427 ft | 0 kts | 222° |
| 2026-04-29 18:35 | 43.10925 | -76.12622 | 422 ft | 0 kts | 216° |
| 2026-04-29 18:36 | 43.10923 | -76.12625 | 424 ft | 0 kts | 212° |
| 2026-04-29 18:38 | 43.10911 | -76.12632 | 424 ft | 8 kts | 192° |
| 2026-04-29 18:38 | 43.10848 | -76.12555 | 420 ft | 16 kts | 117° |
| 2026-04-29 18:38 | 43.10829 | -76.12497 | 423 ft | 0 kts | 103° |
| 2026-04-29 18:38 | 43.10826 | -76.12477 | 423 ft | 0 kts | 96° |
| 2026-04-29 18:39 | 43.10825 | -76.12448 | 423 ft | 18 kts | 89° |
| 2026-04-29 18:39 | 43.10839 | -76.12027 | 414 ft | 69 kts | 88° |
| 2026-04-29 18:39 | 43.10869 | -76.11208 | 434 ft | 99 kts | 89° |
| 2026-04-29 18:39 | 43.10917 | -76.10283 | 641 ft | 100 kts | 87° |
| 2026-04-29 18:40 | 43.11004 | -76.09290 | 770 ft | 107 kts | 88° |
| 2026-04-29 18:40 | 43.11080 | -76.08267 | 966 ft | 109 kts | 88° |
| 2026-04-29 18:40 | 43.11155 | -76.07231 | 1168 ft | 110 kts | 89° |
| 2026-04-29 18:40 | 43.11236 | -76.06205 | 1379 ft | 106 kts | 89° |
| 2026-04-29 18:41 | 43.11566 | -76.03260 | 1989 ft | 103 kts | 87° |
| 2026-04-29 18:41 | 43.11680 | -76.02317 | 2185 ft | 101 kts | 88° |
| 2026-04-29 18:42 | 43.11822 | -76.01360 | 2392 ft | 103 kts | 87° |
| 2026-04-29 18:42 | 43.11961 | -76.00371 | 2498 ft | 112 kts | 86° |
| 2026-04-29 18:42 | 43.12088 | -75.99271 | 2510 ft | 121 kts | 87° |
| 2026-04-29 18:42 | 43.12214 | -75.98103 | 2508 ft | 126 kts | 88° |
| 2026-04-29 18:43 | 43.12338 | -75.96904 | 2506 ft | 128 kts | 88° |
| 2026-04-29 18:43 | 43.12546 | -75.95704 | 2506 ft | 130 kts | 78° |
| 2026-04-29 18:43 | 43.12797 | -75.94523 | 2507 ft | 129 kts | 81° |
| 2026-04-29 18:43 | 43.13035 | -75.93356 | 2498 ft | 128 kts | 81° |
| 2026-04-29 18:44 | 43.13273 | -75.92164 | 2507 ft | 130 kts | 80° |
| 2026-04-29 18:44 | 43.13511 | -75.90972 | 2502 ft | 130 kts | 80° |
| 2026-04-29 18:44 | 43.13748 | -75.89776 | 2505 ft | 131 kts | 81° |
| 2026-04-29 18:44 | 43.13991 | -75.88560 | 2505 ft | 132 kts | 80° |
| 2026-04-29 18:45 | 43.14228 | -75.87357 | 2496 ft | 132 kts | 79° |
| 2026-04-29 18:45 | 43.14468 | -75.86145 | 2507 ft | 131 kts | 82° |
| 2026-04-29 18:45 | 43.14705 | -75.84932 | 2495 ft | 132 kts | 79° |
| 2026-04-29 18:45 | 43.14945 | -75.83726 | 2495 ft | 131 kts | 81° |
| 2026-04-29 18:46 | 43.15185 | -75.82516 | 2497 ft | 132 kts | 81° |
| 2026-04-29 18:46 | 43.15425 | -75.81300 | 2496 ft | 132 kts | 80° |
| 2026-04-29 18:46 | 43.15664 | -75.80093 | 2494 ft | 133 kts | 80° |
| 2026-04-29 18:46 | 43.16127 | -75.78977 | 2485 ft | 137 kts | 59° |
| 2026-04-29 18:47 | 43.16677 | -75.77908 | 2487 ft | 137 kts | 61° |
| 2026-04-29 18:47 | 43.17216 | -75.76832 | 2487 ft | 136 kts | 62° |
| 2026-04-29 18:47 | 43.17746 | -75.75772 | 2484 ft | 134 kts | 62° |
| 2026-04-29 18:47 | 43.18269 | -75.74726 | 2483 ft | 132 kts | 62° |
| 2026-04-29 18:48 | 43.18789 | -75.73684 | 2479 ft | 134 kts | 62° |
| 2026-04-29 18:48 | 43.19310 | -75.72642 | 2491 ft | 133 kts | 62° |
| 2026-04-29 18:48 | 43.19835 | -75.71583 | 2484 ft | 134 kts | 62° |
| 2026-04-29 18:48 | 43.20182 | -75.70884 | 2490 ft | 133 kts | 61° |
| 2026-04-29 18:49 | 43.20875 | -75.69497 | 2489 ft | 133 kts | 62° |
| 2026-04-29 18:49 | 43.21395 | -75.68448 | 2492 ft | 134 kts | 60° |
| 2026-04-29 18:49 | 43.21744 | -75.67747 | 2492 ft | 133 kts | 62° |
| 2026-04-29 18:49 | 43.22265 | -75.66701 | 2491 ft | 132 kts | 61° |
| 2026-04-29 18:50 | 43.22787 | -75.65653 | 2491 ft | 134 kts | 60° |
| 2026-04-29 18:50 | 43.23480 | -75.64257 | 2490 ft | 135 kts | 61° |
| 2026-04-29 18:50 | 43.24017 | -75.63175 | 2488 ft | 137 kts | 61° |
| 2026-04-29 18:50 | 43.24377 | -75.62447 | 2500 ft | 137 kts | 61° |
| 2026-04-29 18:51 | 43.24911 | -75.61372 | 2492 ft | 136 kts | 61° |
| 2026-04-29 18:51 | 43.25438 | -75.60316 | 2488 ft | 134 kts | 61° |
| 2026-04-29 18:51 | 43.25965 | -75.59254 | 2493 ft | 135 kts | 62° |
| 2026-04-29 18:51 | 43.26496 | -75.58181 | 2490 ft | 135 kts | 63° |
| 2026-04-29 18:52 | 43.27024 | -75.57118 | 2491 ft | 134 kts | 63° |
| 2026-04-29 18:52 | 43.27549 | -75.56057 | 2492 ft | 134 kts | 64° |
| 2026-04-29 18:52 | 43.28073 | -75.55000 | 2493 ft | 134 kts | 64° |
| 2026-04-29 18:52 | 43.28594 | -75.53950 | 2443 ft | 133 kts | 63° |
| 2026-04-29 18:53 | 43.29070 | -75.52982 | 2329 ft | 115 kts | 66° |
| 2026-04-29 18:53 | 43.29502 | -75.52096 | 2214 ft | 111 kts | 65° |
| 2026-04-29 18:53 | 43.29863 | -75.51158 | 2106 ft | 107 kts | 89° |
| 2026-04-29 18:53 | 43.29837 | -75.50173 | 2014 ft | 103 kts | 113° |
| 2026-04-29 18:54 | 43.29500 | -75.49355 | 1870 ft | 96 kts | 140° |
| 2026-04-29 18:54 | 43.29028 | -75.48714 | 1659 ft | 95 kts | 139° |
| 2026-04-29 18:54 | 43.28568 | -75.48063 | 1425 ft | 93 kts | 140° |
| 2026-04-29 18:54 | 43.28133 | -75.47448 | 1299 ft | 81 kts | 141° |
| 2026-04-29 18:55 | 43.27816 | -75.46983 | 1306 ft | 66 kts | 139° |
| 2026-04-29 18:55 | 43.27487 | -75.46503 | 1307 ft | 69 kts | 143° |
| 2026-04-29 18:55 | 43.27182 | -75.46061 | 1302 ft | 64 kts | 142° |
| 2026-04-29 18:55 | 43.26846 | -75.45587 | 1313 ft | 73 kts | 142° |
| 2026-04-29 18:56 | 43.26479 | -75.45066 | 1310 ft | 77 kts | 141° |
| 2026-04-29 18:56 | 43.26134 | -75.44545 | 1179 ft | 67 kts | 148° |
| 2026-04-29 18:56 | 43.25792 | -75.44072 | 989 ft | 64 kts | 146° |
| 2026-04-29 18:56 | 43.25516 | -75.43642 | 875 ft | 58 kts | 153° |